PWSweather.com
Personal Weather Stations
Station Observations
REUBENS
Camas Prairie, Reubens, ID 83548

Camas PrairieReubens, ID 83548

Lat: 46.35417, Lon: -116.53167

Elevation: 3480

Station Type: Davis VantagePro 2

http://www.theobrienranch.com/wx/wx.htm

High Low Average
Temperature 80.5°F26.9°F 45.0°F7.2°F 64.4°F18.0°F
Dew Point 51.4°F10.8°F 35.6°F2.0°F 44.7°F7.1°F
Winds 4.6 mph N7.4 mph N Calm Calm 0.5 mph 0.8 mph
Wind Gusts 8.1 mph13.0 mph -- 1.3 mph2.1 mph
Humidity 80% 29% 51%
Pressure 30.28 in1025.40 in 30.14 in1020.70 in -
Precipitation 0.00 in0.00 in - -
Hour Temp Dew Point Humidity Winds Wind Gusts Pressure Precip Precip Rate Daily Precip Total
12:00 AM 51.7°F10.9°C 39.9°F4.4°C 64% Calm Calm -- 30.26 in1024.7 mb - 0.00 in0.0 mm 0.00 in0.0 mm
12:15 AM 53.1°F11.7°C 38.7°F3.7°C 58% Calm Calm -- 30.24 in1024.0 mb - 0.00 in0.0 mm 0.00 in0.0 mm
12:30 AM 50.3°F10.2°C 39.4°F4.1°C 66% Calm Calm -- 30.25 in1024.4 mb - 0.00 in0.0 mm 0.00 in0.0 mm
12:45 AM 51.7°F10.9°C 38.3°F3.5°C 60% Calm Calm -- 30.25 in1024.4 mb - 0.00 in0.0 mm 0.00 in0.0 mm
01:00 AM 50.1°F10.1°C 38.8°F3.8°C 65% Calm Calm -- 30.25 in1024.4 mb - 0.00 in0.0 mm 0.00 in0.0 mm
01:15 AM 49.0°F9.4°C 38.9°F3.8°C 68% Calm Calm -- 30.26 in1024.7 mb - 0.00 in0.0 mm 0.00 in0.0 mm
01:30 AM 47.5°F8.6°C 38.6°F3.7°C 71% Calm Calm -- 30.26 in1024.7 mb - 0.00 in0.0 mm 0.00 in0.0 mm
01:45 AM 47.2°F8.4°C 38.3°F3.5°C 71% Calm Calm -- 30.27 in1025.1 mb - 0.00 in0.0 mm 0.00 in0.0 mm
02:00 AM 47.3°F8.5°C 38.0°F3.3°C 70% Calm Calm -- 30.27 in1025.1 mb - 0.00 in0.0 mm 0.00 in0.0 mm
02:15 AM 48.0°F8.9°C 37.9°F3.3°C 68% Calm Calm -- 30.26 in1024.7 mb - 0.00 in0.0 mm 0.00 in0.0 mm
02:30 AM 47.9°F8.8°C 37.9°F3.3°C 68% Calm Calm -- 30.25 in1024.4 mb - 0.00 in0.0 mm 0.00 in0.0 mm
02:45 AM 46.7°F8.2°C 37.4°F3.0°C 70% Calm Calm -- 30.25 in1024.4 mb - 0.00 in0.0 mm 0.00 in0.0 mm
03:00 AM 47.0°F8.3°C 37.7°F3.2°C 70% Calm Calm -- 30.25 in1024.4 mb - 0.00 in0.0 mm 0.00 in0.0 mm
03:15 AM 47.1°F8.4°C 37.5°F3.1°C 69% Calm Calm -- 30.24 in1024.0 mb - 0.00 in0.0 mm 0.00 in0.0 mm
03:30 AM 46.1°F7.8°C 37.2°F2.9°C 71% Calm Calm -- 30.25 in1024.4 mb - 0.00 in0.0 mm 0.00 in0.0 mm
03:45 AM 45.2°F7.3°C 37.1°F2.8°C 73% Calm Calm -- 30.26 in1024.7 mb - 0.00 in0.0 mm 0.00 in0.0 mm
04:00 AM 45.0°F7.2°C 36.9°F2.7°C 73% Calm Calm -- 30.25 in1024.4 mb - 0.00 in0.0 mm 0.00 in0.0 mm
04:15 AM 46.1°F7.8°C 36.5°F2.5°C 69% Calm Calm -- 30.25 in1024.4 mb - 0.00 in0.0 mm 0.00 in0.0 mm
04:30 AM 46.1°F7.8°C 36.9°F2.7°C 70% Calm Calm -- 30.25 in1024.4 mb - 0.00 in0.0 mm 0.00 in0.0 mm
04:45 AM 47.1°F8.4°C 36.7°F2.6°C 67% Calm Calm -- 30.25 in1024.4 mb - 0.00 in0.0 mm 0.00 in0.0 mm
05:00 AM 48.7°F9.3°C 35.9°F2.2°C 61% Calm Calm -- 30.25 in1024.4 mb - 0.00 in0.0 mm 0.00 in0.0 mm
05:15 AM 50.8°F10.4°C 35.6°F2.0°C 56% Calm Calm -- 30.25 in1024.4 mb - 0.00 in0.0 mm 0.00 in0.0 mm
05:30 AM 47.2°F8.4°C 36.4°F2.4°C 66% Calm Calm -- 30.26 in1024.7 mb - 0.00 in0.0 mm 0.00 in0.0 mm
05:45 AM 50.4°F10.2°C 36.6°F2.6°C 59% Calm Calm -- 30.26 in1024.7 mb - 0.00 in0.0 mm 0.00 in0.0 mm
06:00 AM 49.7°F9.8°C 37.7°F3.2°C 63% Calm Calm -- 30.26 in1024.7 mb - 0.00 in0.0 mm 0.00 in0.0 mm
06:15 AM 49.0°F9.4°C 39.6°F4.2°C 70% Calm Calm -- 30.27 in1025.1 mb - 0.00 in0.0 mm 0.00 in0.0 mm
06:30 AM 50.5°F10.3°C 42.1°F5.6°C 73% Calm Calm -- 30.26 in1024.7 mb - 0.00 in0.0 mm 0.00 in0.0 mm
06:45 AM 51.5°F10.8°C 45.5°F7.5°C 80% Calm Calm -- 30.26 in1024.7 mb - 0.00 in0.0 mm 0.00 in0.0 mm
07:00 AM 54.0°F12.2°C 47.3°F8.5°C 78% Calm Calm -- 30.26 in1024.7 mb - 0.00 in0.0 mm 0.00 in0.0 mm
07:15 AM 56.7°F13.7°C 47.4°F8.6°C 71% Calm Calm -- 30.27 in1025.1 mb - 0.00 in0.0 mm 0.00 in0.0 mm
07:30 AM 60.7°F15.9°C 46.2°F7.9°C 59% Calm Calm -- 30.26 in1024.7 mb - 0.00 in0.0 mm 0.00 in0.0 mm
07:45 AM 62.9°F17.2°C 47.0°F8.3°C 56% Calm Calm -- 30.25 in1024.4 mb - 0.00 in0.0 mm 0.00 in0.0 mm
08:00 AM 63.6°F17.6°C 44.1°F6.7°C 49% 1.2 mph NE1.9 kmh NE -- 30.25 in1024.4 mb - 0.00 in0.0 mm 0.00 in0.0 mm
08:15 AM 64.9°F18.3°C 47.9°F8.8°C 54% Calm Calm -- 30.27 in1025.1 mb - 0.00 in0.0 mm 0.00 in0.0 mm
08:30 AM 66.0°F18.9°C 45.2°F7.3°C 47% Calm Calm -- 30.26 in1024.7 mb - 0.00 in0.0 mm 0.00 in0.0 mm
08:45 AM 68.1°F20.1°C 45.9°F7.7°C 45% Calm Calm -- 30.25 in1024.4 mb - 0.00 in0.0 mm 0.00 in0.0 mm
09:00 AM 68.9°F20.5°C 47.3°F8.5°C 46% Calm Calm 1.2 mph1.9 kmh 30.25 in1024.4 mb - 0.00 in0.0 mm 0.00 in0.0 mm
09:15 AM 69.3°F20.7°C 45.9°F7.7°C 43% Calm Calm -- 30.26 in1024.7 mb - 0.00 in0.0 mm 0.00 in0.0 mm
09:30 AM 69.3°F20.7°C 47.6°F8.7°C 46% 1.2 mph NE1.9 kmh NE 4.6 mph7.4 kmh 30.26 in1024.7 mb - 0.00 in0.0 mm 0.00 in0.0 mm
09:45 AM 69.2°F20.7°C 45.1°F7.3°C 42% 2.3 mph NE3.7 kmh NE 4.6 mph7.4 kmh 30.25 in1024.4 mb - 0.00 in0.0 mm 0.00 in0.0 mm
10:00 AM 71.0°F21.7°C 47.4°F8.6°C 43% 1.2 mph NE1.9 kmh NE 3.5 mph5.6 kmh 30.25 in1024.4 mb - 0.00 in0.0 mm 0.00 in0.0 mm
10:15 AM 71.7°F22.1°C 49.2°F9.6°C 45% 1.2 mph NE1.9 kmh NE 5.8 mph9.3 kmh 30.26 in1024.7 mb - 0.00 in0.0 mm 0.00 in0.0 mm
10:30 AM 71.5°F21.9°C 47.2°F8.4°C 42% Calm Calm 3.5 mph5.6 kmh 30.27 in1025.1 mb - 0.00 in0.0 mm 0.00 in0.0 mm
10:45 AM 69.4°F20.8°C 46.0°F7.8°C 43% 2.3 mph NE3.7 kmh NE 4.6 mph7.4 kmh 30.28 in1025.4 mb - 0.00 in0.0 mm 0.00 in0.0 mm
11:00 AM 70.3°F21.3°C 46.1°F7.8°C 42% Calm Calm 3.5 mph5.6 kmh 30.27 in1025.1 mb - 0.00 in0.0 mm 0.00 in0.0 mm
11:15 AM 70.5°F21.4°C 45.7°F7.6°C 41% 1.2 mph NE1.9 kmh NE 3.5 mph5.6 kmh 30.27 in1025.1 mb - 0.00 in0.0 mm 0.00 in0.0 mm
11:30 AM 72.5°F22.5°C 45.4°F7.4°C 38% 2.3 mph NE3.7 kmh NE 3.5 mph5.6 kmh 30.26 in1024.7 mb - 0.00 in0.0 mm 0.00 in0.0 mm
11:45 AM 73.1°F22.8°C 49.9°F9.9°C 44% Calm Calm 3.5 mph5.6 kmh 30.25 in1024.4 mb - 0.00 in0.0 mm 0.00 in0.0 mm
12:00 PM 73.5°F23.1°C 47.7°F8.7°C 40% 1.2 mph ENE1.9 kmh ENE 3.5 mph5.6 kmh 30.25 in1024.4 mb - 0.00 in0.0 mm 0.00 in0.0 mm
12:15 PM 73.0°F22.8°C 47.2°F8.4°C 40% 2.3 mph NE3.7 kmh NE 3.5 mph5.6 kmh 30.26 in1024.7 mb - 0.00 in0.0 mm 0.00 in0.0 mm
12:30 PM 74.5°F23.6°C 49.9°F9.9°C 42% 1.2 mph NE1.9 kmh NE 3.5 mph5.6 kmh 30.26 in1024.7 mb - 0.00 in0.0 mm 0.00 in0.0 mm
12:45 PM 74.9°F23.8°C 48.9°F9.4°C 40% 2.3 mph N3.7 kmh N 4.6 mph7.4 kmh 30.25 in1024.4 mb - 0.00 in0.0 mm 0.00 in0.0 mm
01:00 PM 75.5°F24.2°C 48.8°F9.3°C 39% 2.3 mph NNE3.7 kmh NNE 3.5 mph5.6 kmh 30.25 in1024.4 mb - 0.00 in0.0 mm 0.00 in0.0 mm
01:15 PM 74.7°F23.7°C 46.6°F8.1°C 37% 1.2 mph NE1.9 kmh NE 1.2 mph1.9 kmh 30.26 in1024.7 mb - 0.00 in0.0 mm 0.00 in0.0 mm
01:30 PM 74.6°F23.7°C 47.3°F8.5°C 38% 3.5 mph NE5.6 kmh NE 5.8 mph9.3 kmh 30.26 in1024.7 mb - 0.00 in0.0 mm 0.00 in0.0 mm
01:45 PM 76.4°F24.7°C 51.0°F10.6°C 41% Calm Calm 1.2 mph1.9 kmh 30.25 in1024.4 mb - 0.00 in0.0 mm 0.00 in0.0 mm
02:00 PM 76.9°F24.9°C 47.9°F8.8°C 36% 1.2 mph NW1.9 kmh NW 3.5 mph5.6 kmh 30.25 in1024.4 mb - 0.00 in0.0 mm 0.00 in0.0 mm
02:15 PM 75.6°F24.2°C 45.2°F7.3°C 34% Calm Calm -- 30.25 in1024.4 mb - 0.00 in0.0 mm 0.00 in0.0 mm
02:30 PM 78.3°F25.7°C 50.6°F10.3°C 38% Calm Calm 3.5 mph5.6 kmh 30.24 in1024.0 mb - 0.00 in0.0 mm 0.00 in0.0 mm
02:45 PM 77.3°F25.2°C 43.4°F6.3°C 30% Calm Calm -- 30.24 in1024.0 mb - 0.00 in0.0 mm 0.00 in0.0 mm
03:00 PM 76.2°F24.6°C 45.8°F7.7°C 34% Calm Calm 3.5 mph5.6 kmh 30.24 in1024.0 mb - 0.00 in0.0 mm 0.00 in0.0 mm
03:15 PM 78.2°F25.7°C 45.1°F7.3°C 31% 3.5 mph NNE5.6 kmh NNE 5.8 mph9.3 kmh 30.23 in1023.7 mb - 0.00 in0.0 mm 0.00 in0.0 mm
03:30 PM 79.8°F26.6°C 44.7°F7.1°C 29% 1.2 mph N1.9 kmh N 8.1 mph13.0 kmh 30.23 in1023.7 mb - 0.00 in0.0 mm 0.00 in0.0 mm
03:45 PM 80.0°F26.7°C 50.7°F10.4°C 36% Calm Calm -- 30.22 in1023.4 mb - 0.00 in0.0 mm 0.00 in0.0 mm
04:00 PM 80.5°F26.9°C 50.3°F10.2°C 35% 1.2 mph NW1.9 kmh NW 5.8 mph9.3 kmh 30.22 in1023.4 mb - 0.00 in0.0 mm 0.00 in0.0 mm
04:15 PM 78.7°F25.9°C 45.5°F7.5°C 31% 1.2 mph N1.9 kmh N 2.3 mph3.7 kmh 30.21 in1023.0 mb - 0.00 in0.0 mm 0.00 in0.0 mm
04:30 PM 78.8°F26.0°C 49.6°F9.8°C 36% Calm Calm 3.5 mph5.6 kmh 30.20 in1022.7 mb - 0.00 in0.0 mm 0.00 in0.0 mm
04:45 PM 80.1°F26.7°C 51.4°F10.8°C 37% 3.5 mph NW5.6 kmh NW 4.6 mph7.4 kmh 30.20 in1022.7 mb - 0.00 in0.0 mm 0.00 in0.0 mm
05:00 PM 78.4°F25.8°C 47.7°F8.7°C 34% 4.6 mph N7.4 kmh N 5.8 mph9.3 kmh 30.20 in1022.7 mb - 0.00 in0.0 mm 0.00 in0.0 mm
05:15 PM 77.8°F25.4°C 49.4°F9.7°C 37% Calm Calm -- 30.21 in1023.0 mb - 0.00 in0.0 mm 0.00 in0.0 mm
05:30 PM 78.0°F25.6°C 50.3°F10.2°C 38% 1.2 mph N1.9 kmh N 3.5 mph5.6 kmh 30.20 in1022.7 mb - 0.00 in0.0 mm 0.00 in0.0 mm
05:45 PM 79.0°F26.1°C 47.4°F8.6°C 33% 2.3 mph N3.7 kmh N 3.5 mph5.6 kmh 30.19 in1022.4 mb - 0.00 in0.0 mm 0.00 in0.0 mm
06:00 PM 78.5°F25.8°C 47.0°F8.3°C 33% Calm Calm -- 30.19 in1022.4 mb - 0.00 in0.0 mm 0.00 in0.0 mm
06:15 PM 79.8°F26.6°C 48.9°F9.4°C 34% Calm Calm -- 30.16 in1021.3 mb - 0.00 in0.0 mm 0.00 in0.0 mm
06:30 PM 79.8°F26.6°C 49.7°F9.8°C 35% Calm Calm 1.2 mph1.9 kmh 30.16 in1021.3 mb - 0.00 in0.0 mm 0.00 in0.0 mm
06:45 PM 78.8°F26.0°C 48.9°F9.4°C 35% Calm Calm -- 30.16 in1021.3 mb - 0.00 in0.0 mm 0.00 in0.0 mm
07:00 PM 77.6°F25.3°C 48.5°F9.2°C 36% Calm Calm -- 30.16 in1021.3 mb - 0.00 in0.0 mm 0.00 in0.0 mm
07:15 PM 75.9°F24.4°C 50.5°F10.3°C 41% Calm Calm -- 30.14 in1020.7 mb - 0.00 in0.0 mm 0.00 in0.0 mm
07:30 PM 75.3°F24.1°C 50.0°F10.0°C 41% Calm Calm -- 30.14 in1020.7 mb - 0.00 in0.0 mm 0.00 in0.0 mm
07:45 PM 73.1°F22.8°C 49.9°F9.9°C 44% Calm Calm -- 30.15 in1021.0 mb - 0.00 in0.0 mm 0.00 in0.0 mm
08:00 PM 71.6°F22.0°C 48.5°F9.2°C 44% Calm Calm -- 30.16 in1021.3 mb - 0.00 in0.0 mm 0.00 in0.0 mm
08:15 PM 70.5°F21.4°C 46.3°F7.9°C 42% Calm Calm -- 30.14 in1020.7 mb - 0.00 in0.0 mm 0.00 in0.0 mm
08:30 PM 69.6°F20.9°C 46.8°F8.2°C 44% Calm Calm -- 30.14 in1020.7 mb - 0.00 in0.0 mm 0.00 in0.0 mm
08:45 PM 67.8°F19.9°C 45.7°F7.6°C 45% Calm Calm -- 30.15 in1021.0 mb - 0.00 in0.0 mm 0.00 in0.0 mm
09:00 PM 66.3°F19.1°C 44.3°F6.8°C 45% Calm Calm -- 30.16 in1021.3 mb - 0.00 in0.0 mm 0.00 in0.0 mm
09:15 PM 64.5°F18.1°C 46.0°F7.8°C 51% Calm Calm -- 30.16 in1021.3 mb - 0.00 in0.0 mm 0.00 in0.0 mm
09:30 PM 63.1°F17.3°C 46.2°F7.9°C 54% Calm Calm -- 30.16 in1021.3 mb - 0.00 in0.0 mm 0.00 in0.0 mm
09:45 PM 62.1°F16.7°C 47.1°F8.4°C 58% Calm Calm -- 30.17 in1021.7 mb - 0.00 in0.0 mm 0.00 in0.0 mm
10:00 PM 61.1°F16.2°C 47.1°F8.4°C 60% Calm Calm -- 30.17 in1021.7 mb - 0.00 in0.0 mm 0.00 in0.0 mm
10:15 PM 60.2°F15.7°C 47.9°F8.8°C 64% 1.2 mph NE1.9 kmh NE 2.3 mph3.7 kmh 30.18 in1022.0 mb - 0.00 in0.0 mm 0.00 in0.0 mm
10:30 PM 59.0°F15.0°C 47.2°F8.4°C 65% Calm Calm -- 30.18 in1022.0 mb - 0.00 in0.0 mm 0.00 in0.0 mm
11:00 PM 56.7°F13.7°C 46.3°F7.9°C 68% Calm Calm -- 30.18 in1022.0 mb - 0.00 in0.0 mm 0.00 in0.0 mm
11:30 PM 55.4°F13.0°C 45.8°F7.7°C 70% Calm Calm -- 30.18 in1022.0 mb - 0.00 in0.0 mm 0.00 in0.0 mm
11:45 PM 54.7°F12.6°C 45.8°F7.7°C 72% Calm Calm -- 30.18 in1022.0 mb - 0.00 in0.0 mm 0.00 in0.0 mm